Time;durP1;ratioP1;P1;durP2;ratioP2;P2;SDS_P1;SDS_P2;PMS_P1;PMS_P2;Temp;Humidity;BMP_temperature;BMP_pressure;BME280_temperature;BME280_humidity;BME280_pressure;Samples;Min_cycle;Max_cycle;Signal;HPM_P1;HPM_P2
2021/08/30 00:01:59;;;;;;;1.00;0.50;;;;;;;14.96;100.00;100991.78;4977654;28;20044;-76
2021/08/30 00:05:05;;;;;;;0.90;0.65;;;;;;;15.16;100.00;100991.13;4966409;28;20711;-78
2021/08/30 00:08:08;;;;;;;0.45;0.35;;;;;;;15.29;100.00;100988.09;4977870;28;20068;-76
2021/08/30 00:11:17;;;;;;;1.23;0.57;;;;;;;15.30;100.00;100986.81;4967564;28;20049;-77
2021/08/30 00:14:22;;;;;;;1.50;0.55;;;;;;;15.21;100.00;100990.47;4976635;28;20053;-80
2021/08/30 00:17:31;;;;;;;1.40;0.70;;;;;;;15.19;100.00;100990.19;4977342;28;21124;-77
2021/08/30 00:20:36;;;;;;;0.68;0.65;;;;;;;14.92;100.00;100996.75;4977389;28;20052;-78
2021/08/30 00:23:43;;;;;;;0.82;0.45;;;;;;;14.91;100.00;101000.84;4978025;28;20049;-78
2021/08/30 00:26:50;;;;;;;0.73;0.50;;;;;;;15.09;100.00;101003.50;4977483;28;20063;-78
2021/08/30 00:29:53;;;;;;;0.43;0.40;;;;;;;15.29;100.00;100993.69;4977295;28;20046;-78
2021/08/30 00:32:56;;;;;;;1.38;0.32;;;;;;;15.19;100.00;100998.59;4965743;28;20057;-77
2021/08/30 00:36:00;;;;;;;2.63;0.40;;;;;;;15.23;100.00;100998.41;4977734;28;20773;-79
2021/08/30 00:39:03;;;;;;;0.75;0.43;;;;;;;15.39;100.00;101003.59;4976942;28;20057;-78
2021/08/30 00:42:07;;;;;;;2.47;0.60;;;;;;;15.29;100.00;101002.88;4977712;28;20060;-78
2021/08/30 00:45:12;;;;;;;2.63;0.93;;;;;;;15.13;100.00;101003.34;4977484;28;20052;-79
2021/08/30 00:48:32;;;;;;;0.30;0.20;;;;;;;15.06;100.00;101006.50;4977621;28;20502;-79
2021/08/30 00:51:35;;;;;;;1.75;0.63;;;;;;;15.34;100.00;101007.06;4977541;28;20041;-76
2021/08/30 00:54:45;;;;;;;0.88;0.60;;;;;;;15.40;100.00;101005.16;4977547;28;20063;-79
2021/08/30 00:57:48;;;;;;;0.82;0.50;;;;;;;15.27;100.00;101005.38;4963979;28;21073;-77
2021/08/30 01:00:51;;;;;;;1.00;0.57;;;;;;;15.54;100.00;101007.22;4978963;28;20088;-77
2021/08/30 01:03:54;;;;;;;1.10;0.68;;;;;;;15.43;100.00;101004.97;4977072;28;20104;-76
2021/08/30 01:07:32;;;;;;;1.38;0.60;;;;;;;15.28;100.00;101012.56;4977379;28;20192;-79
2021/08/30 01:10:38;;;;;;;0.90;0.47;;;;;;;14.68;100.00;101015.63;4969047;28;20104;-77
2021/08/30 01:13:48;;;;;;;1.23;0.60;;;;;;;13.65;100.00;101027.28;4979312;28;20056;-76
2021/08/30 01:17:09;;;;;;;1.35;0.70;;;;;;;14.07;100.00;101024.56;4980284;28;20046;-79
2021/08/30 01:20:24;;;;;;;0.88;0.45;;;;;;;13.70;100.00;101026.66;4978111;28;20045;-77
2021/08/30 01:23:40;;;;;;;0.40;0.35;;;;;;;14.46;100.00;101020.72;4976469;28;20888;-79
2021/08/30 01:26:49;;;;;;;1.65;0.88;;;;;;;14.88;100.00;101018.59;4940769;28;20134;-78
2021/08/30 01:30:00;;;;;;;0.73;0.73;;;;;;;15.23;100.00;101009.63;4940728;28;20823;-76
2021/08/30 01:33:08;;;;;;;0.40;0.40;;;;;;;15.64;100.00;101008.69;4938804;28;20037;-78
2021/08/30 01:36:17;;;;;;;1.42;0.45;;;;;;;14.04;100.00;101011.50;4938580;28;20740;-79
2021/08/30 01:39:26;;;;;;;6.72;0.55;;;;;;;13.43;100.00;101019.06;4941706;28;20050;-77
2021/08/30 01:42:39;;;;;;;1.80;0.50;;;;;;;15.48;100.00;101009.16;4941544;28;20081;-77
2021/08/30 01:45:48;;;;;;;4.88;0.65;;;;;;;14.65;100.00;101016.56;4942673;28;21237;-79
2021/08/30 01:48:58;;;;;;;0.50;0.50;;;;;;;13.43;100.00;101019.06;4941140;28;20046;-78
2021/08/30 01:52:02;;;;;;;0.43;0.32;;;;;;;13.30;100.00;101026.81;4942575;28;20756;-77
2021/08/30 02:01:25;;;;;;;1.23;0.80;;;;;;;13.79;100.00;101035.06;4942200;28;20464;-77
2021/08/30 02:04:28;;;;;;;1.65;0.40;;;;;;;13.56;100.00;101025.28;4942403;28;20057;-78
2021/08/30 02:07:31;;;;;;;0.45;0.40;;;;;;;13.57;100.00;101035.25;4942427;28;20053;-76
2021/08/30 02:10:34;;;;;;;0.65;0.60;;;;;;;13.79;100.00;101037.84;4941811;28;20834;-78
2021/08/30 02:13:37;;;;;;;1.02;0.60;;;;;;;13.90;100.00;101034.56;4942838;28;20069;-78
2021/08/30 02:16:42;;;;;;;1.90;0.47;;;;;;;14.01;100.00;101029.25;4942041;28;20050;-76
2021/08/30 02:19:55;;;;;;;1.75;0.28;;;;;;;13.75;100.00;101033.66;4943180;28;20303;-77
2021/08/30 02:23:01;;;;;;;1.98;0.82;;;;;;;13.68;100.00;101035.53;4942560;28;20065;-76
2021/08/30 02:26:13;;;;;;;0.70;0.43;;;;;;;13.59;100.00;101027.16;4975701;28;20757;-76
2021/08/30 02:29:21;;;;;;;0.25;0.20;;;;;;;13.57;100.00;101028.84;4981541;28;21134;-76
2021/08/30 02:32:26;;;;;;;1.10;0.45;;;;;;;13.75;100.00;101030.88;4980954;28;20048;-76
2021/08/30 02:35:32;;;;;;;6.25;0.68;;;;;;;13.72;100.00;101031.78;4968961;28;20045;-76
2021/08/30 02:38:39;;;;;;;1.13;0.70;;;;;;;13.59;100.00;101027.16;4979180;28;20049;-78
2021/08/30 02:41:45;;;;;;;1.20;0.40;;;;;;;14.95;100.00;101029.47;4980239;28;20054;-78
2021/08/30 02:44:48;;;;;;;1.80;0.73;;;;;;;15.34;100.00;101019.06;4980608;28;20133;-76
2021/08/30 02:47:53;;;;;;;1.63;0.55;;;;;;;15.65;100.00;101013.06;4979640;28;20056;-77
2021/08/30 02:50:58;;;;;;;0.60;0.52;;;;;;;15.78;100.00;101011.53;4980500;28;20103;-78
2021/08/30 02:54:01;;;;;;;2.22;1.02;;;;;;;15.86;100.00;101017.53;4979735;28;20041;-76
2021/08/30 02:57:06;;;;;;;4.35;0.80;;;;;;;13.83;100.00;101032.09;4979598;28;20107;-76
2021/08/30 03:00:10;;;;;;;1.58;0.55;;;;;;;13.49;100.00;101039.56;4980535;28;20240;-78
2021/08/30 03:03:14;;;;;;;1.95;0.47;;;;;;;14.68;100.00;101032.47;4980965;28;20040;-76
2021/08/30 03:06:18;;;;;;;1.83;1.00;;;;;;;14.19;100.00;101034.78;4981263;28;20112;-78
2021/08/30 03:09:24;;;;;;;1.35;0.60;;;;;;;15.05;100.00;101022.53;4960790;28;20139;-77
2021/08/30 03:12:35;;;;;;;3.85;1.08;;;;;;;14.08;100.00;101029.69;4959863;28;21119;-78
2021/08/30 03:15:44;;;;;;;1.20;0.75;;;;;;;13.43;100.00;101030.25;4946972;28;20061;-77
2021/08/30 03:18:47;;;;;;;0.28;0.28;;;;;;;13.46;100.00;101034.16;4960345;28;20057;-78
2021/08/30 03:21:59;;;;;;;0.50;0.40;;;;;;;13.33;100.00;101031.50;4961099;28;20544;-79
2021/08/30 03:25:06;;;;;;;1.05;0.93;;;;;;;13.13;100.00;101031.16;4959616;28;20058;-77
2021/08/30 03:28:14;;;;;;;1.58;0.32;;;;;;;13.36;100.00;101030.56;4947480;28;20069;-79
2021/08/30 03:31:18;;;;;;;1.55;0.85;;;;;;;13.57;100.00;101028.84;4969029;28;21134;-78
2021/08/30 03:34:37;;;;;;;1.00;0.30;;;;;;;14.42;100.00;101022.91;4959913;28;20069;-76
2021/08/30 03:37:51;;;;;;;1.65;0.75;;;;;;;13.47;100.00;101019.69;4959070;28;20049;-78
2021/08/30 03:40:54;;;;;;;2.05;0.70;;;;;;;13.23;100.00;101015.94;4958471;28;20053;-78
2021/08/30 03:43:59;;;;;;;2.05;0.82;;;;;;;14.48;100.00;101023.81;4959979;28;20972;-75
2021/08/30 03:47:07;;;;;;;2.90;0.70;;;;;;;14.82;100.00;101014.91;4958008;28;20512;-78
2021/08/30 03:50:13;;;;;;;1.80;0.60;;;;;;;15.31;100.00;101016.44;4958587;28;20857;-77
2021/08/30 03:53:22;;;;;;;0.38;0.28;;;;;;;15.34;100.00;101015.47;4979042;28;20041;-78
2021/08/30 03:56:27;;;;;;;1.50;1.00;;;;;;;15.01;100.00;101015.56;4978338;28;20049;-76
2021/08/30 03:59:35;;;;;;;1.13;0.93;;;;;;;14.93;100.00;101014.38;4977428;28;20107;-78
2021/08/30 04:02:58;;;;;;;0.85;0.65;;;;;;;14.88;100.00;101013.00;4977542;28;20115;-78
2021/08/30 04:06:07;;;;;;;1.10;0.70;;;;;;;14.91;100.00;101012.06;4965010;28;20213;-77
2021/08/30 04:09:20;;;;;;;2.03;0.45;;;;;;;14.99;100.00;101020.88;4978180;28;20533;-79
2021/08/30 04:12:28;;;;;;;0.55;0.40;;;;;;;15.11;100.00;101020.66;4977774;28;20066;-77
2021/08/30 04:15:32;;;;;;;1.85;0.63;;;;;;;15.29;100.00;101016.16;4976561;28;20188;-79
2021/08/30 04:18:35;;;;;;;2.63;0.68;;;;;;;15.29;100.00;101018.97;4964570;28;20416;-78
2021/08/30 04:21:38;;;;;;;1.17;0.57;;;;;;;15.27;100.00;101027.09;4978348;28;20092;-78
2021/08/30 04:24:42;;;;;;;1.38;0.47;;;;;;;15.17;100.00;101023.56;4979161;28;21048;-77
2021/08/30 04:27:49;;;;;;;1.08;0.50;;;;;;;15.04;100.00;101021.00;4979457;28;20092;-79
2021/08/30 04:30:55;;;;;;;0.50;0.50;;;;;;;15.06;100.00;101007.28;4979126;28;20069;-78
2021/08/30 04:34:05;;;;;;;1.55;0.85;;;;;;;14.54;100.00;101021.91;4980178;28;20067;-79
2021/08/30 04:37:08;;;;;;;1.35;0.55;;;;;;;14.39;100.00;101033.03;4978847;28;20033;-78
2021/08/30 04:40:18;;;;;;;2.65;0.68;;;;;;;13.16;100.00;101035.84;4978664;28;20293;-78
2021/08/30 04:43:26;;;;;;;4.03;1.30;;;;;;;12.91;100.00;101041.66;4979052;28;20121;-79
2021/08/30 04:46:31;;;;;;;4.70;1.05;;;;;;;13.75;100.00;101033.66;4979297;28;20104;-78
2021/08/30 04:49:38;;;;;;;5.88;0.80;;;;;;;14.49;100.00;101030.97;4964771;28;20184;-76
2021/08/30 04:52:41;;;;;;;2.10;0.73;;;;;;;14.58;100.00;101028.13;4979048;28;20045;-78
2021/08/30 04:55:44;;;;;;;0.38;0.30;;;;;;;13.36;100.00;101041.00;4986035;28;20057;-78
2021/08/30 04:59:04;;;;;;;0.28;0.13;;;;;;;12.97;100.00;101037.03;4976735;28;20121;-76
2021/08/30 05:02:07;;;;;;;1.23;0.38;;;;;;;12.94;100.00;101037.94;4979730;28;20115;-78
2021/08/30 05:05:10;;;;;;;7.07;0.70;;;;;;;12.81;100.00;101040.09;4980989;28;20117;-78
2021/08/30 05:08:20;;;;;;;0.50;0.32;;;;;;;12.80;100.00;101038.53;4980862;28;20049;-78
2021/08/30 05:11:31;;;;;;;0.43;0.32;;;;;;;12.83;100.00;101043.22;4980713;28;20092;-77
2021/08/30 05:14:35;;;;;;;0.20;0.20;;;;;;;12.80;100.00;101044.91;4969800;28;20048;-77
2021/08/30 05:17:42;;;;;;;1.70;0.65;;;;;;;12.82;100.00;101052.84;4981470;28;20121;-78
2021/08/30 05:20:49;;;;;;;1.80;0.30;;;;;;;12.82;100.00;101052.84;4978928;28;20029;-77
2021/08/30 05:23:52;;;;;;;0.22;0.22;;;;;;;13.38;100.00;101047.66;4969667;28;20120;-79
2021/08/30 05:27:00;;;;;;;2.45;0.55;;;;;;;14.32;100.00;101049.41;4980575;28;20192;-77
2021/08/30 05:30:03;;;;;;;0.32;0.32;;;;;;;14.72;100.00;101038.66;4982769;28;20045;-78
2021/08/30 05:33:07;;;;;;;1.77;0.47;;;;;;;15.02;100.00;101034.75;4981375;28;20091;-77
2021/08/30 05:36:10;;;;;;;4.78;0.30;;;;;;;15.30;100.00;101034.53;4980342;28;20117;-78
2021/08/30 05:39:25;;;;;;;0.75;0.47;;;;;;;15.42;100.00;101039.13;4980993;28;20061;-76
2021/08/30 05:42:29;;;;;;;1.40;0.52;;;;;;;15.78;100.00;101030.41;4990287;28;20033;-77
2021/08/30 05:45:33;;;;;;;1.92;0.63;;;;;;;16.13;100.00;101025.66;4979641;28;20064;-78
2021/08/30 05:48:48;;;;;;;1.55;0.40;;;;;;;15.32;100.00;101032.03;4979690;28;20045;-78
2021/08/30 05:51:51;;;;;;;1.27;0.45;;;;;;;15.25;100.00;101040.78;5014497;28;20052;-77
2021/08/30 05:54:54;;;;;;;3.30;1.02;;;;;;;15.28;100.00;101037.03;5015016;28;20048;-76
2021/08/30 05:57:57;;;;;;;0.10;0.10;;;;;;;15.40;100.00;101036.03;5015043;28;20447;-76
2021/08/30 06:01:02;;;;;;;0.70;0.40;;;;;;;15.53;100.00;101036.53;5014640;28;20044;-77
2021/08/30 06:04:05;;;;;;;0.20;0.20;;;;;;;15.67;100.00;101038.63;5014686;28;20168;-76
2021/08/30 06:07:08;;;;;;;1.95;0.57;;;;;;;15.65;100.00;101041.13;5014184;28;20045;-76
2021/08/30 06:10:11;;;;;;;0.30;0.17;;;;;;;15.77;100.00;101043.66;5014347;28;20036;-78
2021/08/30 06:13:14;;;;;;;1.65;0.30;;;;;;;15.88;100.00;101037.47;5013742;28;20415;-76
2021/08/30 06:16:21;;;;;;;0.30;0.30;;;;;;;16.04;100.00;101044.66;5014521;28;20100;-76
2021/08/30 06:19:25;;;;;;;0.75;0.50;;;;;;;16.16;100.00;101047.16;5014146;28;20475;-75
2021/08/30 06:22:28;;;;;;;0.98;0.40;;;;;;;16.22;100.00;101050.84;5013982;28;20518;-76
2021/08/30 06:25:31;;;;;;;1.45;0.50;;;;;;;16.13;100.00;101048.16;5013706;28;20112;-75
2021/08/30 06:28:34;;;;;;;0.55;0.47;;;;;;;15.98;100.00;101053.00;5013676;28;20128;-76
2021/08/30 06:31:37;;;;;;;0.65;0.65;;;;;;;15.92;100.00;101046.47;5013881;28;20424;-75
2021/08/30 06:34:40;;;;;;;1.30;0.75;;;;;;;15.91;100.00;101044.94;5013866;28;20415;-76
2021/08/30 06:37:43;;;;;;;4.13;1.02;;;;;;;16.00;100.00;101053.28;5013970;28;20048;-75
2021/08/30 06:40:46;;;;;;;0.98;0.50;;;;;;;16.07;100.00;101050.06;5013979;28;20040;-76
2021/08/30 06:43:48;;;;;;;0.85;0.38;;;;;;;16.00;100.00;101050.47;5014097;28;20093;-78
2021/08/30 06:47:00;;;;;;;3.50;0.60;;;;;;;16.02;100.00;101047.97;5013629;28;20459;-78
2021/08/30 06:50:04;;;;;;;1.60;0.77;;;;;;;15.98;100.00;101053.00;5013770;28;20416;-78
2021/08/30 06:53:07;;;;;;;0.25;0.10;;;;;;;16.06;100.00;101054.16;5013720;28;20053;-76
2021/08/30 06:56:09;;;;;;;0.47;0.22;;;;;;;16.19;100.00;101051.81;5013560;28;20091;-76
2021/08/30 06:59:17;;;;;;;0.82;0.20;;;;;;;16.19;100.00;101049.00;5013524;28;20160;-76
2021/08/30 07:02:21;;;;;;;0.10;0.10;;;;;;;16.30;100.00;101051.22;5013332;28;20439;-76
2021/08/30 07:05:24;;;;;;;0.40;0.38;;;;;;;16.37;100.00;101043.16;5013072;28;20121;-77
2021/08/30 07:08:27;;;;;;;0.32;0.32;;;;;;;16.45;100.00;101052.00;5013010;28;20048;-77
2021/08/30 07:11:41;;;;;;;0.22;0.20;;;;;;;16.45;100.00;101052.78;5012916;28;20076;-76
2021/08/30 07:14:44;;;;;;;1.02;0.40;;;;;;;16.44;100.00;101056.06;5013365;28;20040;-76
2021/08/30 07:17:47;;;;;;;1.27;0.40;;;;;;;16.64;100.00;101054.13;5013277;28;20087;-77
2021/08/30 07:20:50;;;;;;;1.33;0.50;;;;;;;14.54;100.00;101066.78;5013203;28;20412;-76
2021/08/30 07:23:53;;;;;;;1.10;0.65;;;;;;;14.29;100.00;101067.19;5013033;28;20064;-77
2021/08/30 07:26:56;;;;;;;1.25;0.43;;;;;;;14.31;100.00;101065.44;5012015;28;20481;-76
2021/08/30 07:29:59;;;;;;;0.65;0.55;;;;;;;14.14;100.00;101078.22;5000200;28;20056;-76
2021/08/30 07:33:02;;;;;;;0.85;0.47;;;;;;;14.27;100.00;101075.25;5013090;28;20052;-76
2021/08/30 07:36:05;;;;;;;3.88;0.90;;;;;;;14.19;100.00;101068.41;5012030;28;20043;-76
2021/08/30 07:39:08;;;;;;;1.35;0.35;;;;;;;14.38;100.00;101069.94;5007528;28;20048;-76
2021/08/30 07:42:11;;;;;;;0.28;0.20;;;;;;;14.47;100.00;101069.91;4974632;28;20052;-77
2021/08/30 07:45:14;;;;;;;1.08;0.30;;;;;;;14.79;100.00;101071.19;4974650;28;20672;-77
2021/08/30 07:48:17;;;;;;;0.75;0.75;;;;;;;14.35;100.00;101082.09;4973206;28;20722;-77
2021/08/30 07:51:20;;;;;;;6.82;0.38;;;;;;;15.03;100.00;101064.34;4971019;28;20041;-77
2021/08/30 07:54:23;;;;;;;3.08;0.50;;;;;;;15.54;100.00;101071.81;4972339;28;20045;-78
2021/08/30 07:57:26;;;;;;;0.35;0.20;;;;;;;16.24;100.00;101065.19;4959972;28;20784;-77
2021/08/30 08:00:29;;;;;;;1.67;0.52;;;;;;;16.51;100.00;101064.91;4969885;28;20033;-77
2021/08/30 08:03:33;;;;;;;1.25;0.50;;;;;;;14.91;100.00;101070.19;4971746;28;20032;-77
2021/08/30 08:06:35;;;;;;;4.68;0.95;;;;;;;16.10;100.00;101071.59;4971061;28;20037;-77
2021/08/30 08:09:38;;;;;;;0.50;0.40;;;;;;;16.52;100.00;101066.44;4951143;28;20046;-78
2021/08/30 08:12:42;;;;;;;3.42;0.95;;;;;;;16.97;100.00;101073.53;4950270;28;20636;-78
2021/08/30 08:15:46;;;;;;;0.40;0.30;;;;;;;17.24;100.00;101077.97;4960034;28;20053;-78
2021/08/30 08:18:49;;;;;;;1.55;0.45;;;;;;;17.59;100.00;101078.72;4970752;28;20083;-78
2021/08/30 08:21:55;;;;;;;3.97;0.38;;;;;;;17.48;100.00;101081.34;4981522;28;20037;-78
2021/08/30 08:24:59;;;;;;;0.75;0.50;;;;;;;17.49;100.00;101087.78;4971260;28;20048;-77
2021/08/30 08:28:06;;;;;;;0.60;0.60;;;;;;;17.88;100.00;101081.34;4970770;28;20049;-78
2021/08/30 08:31:09;;;;;;;1.00;0.10;;;;;;;17.86;100.00;101083.91;4961824;28;20022;-79
2021/08/30 08:34:12;;;;;;;0.10;0.10;;;;;;;17.86;100.00;101089.53;4959503;28;20025;-79
2021/08/30 08:37:15;;;;;;;1.92;0.28;;;;;;;17.99;100.00;101080.69;4958937;28;20181;-78
2021/08/30 08:40:19;;;;;;;1.55;0.68;;;;;;;15.96;100.00;101089.19;4963269;28;20072;-78
2021/08/30 08:43:22;;;;;;;0.40;0.20;;;;;;;17.05;100.00;101082.31;4969910;28;20100;-78
2021/08/30 08:46:27;;;;;;;0.57;0.10;;;;;;;17.79;100.00;101084.31;4973595;28;20087;-79
2021/08/30 08:49:30;;;;;;;0.90;0.60;;;;;;;17.99;100.00;101081.47;4983793;28;20794;-79
2021/08/30 08:52:34;;;;;;;0.20;0.20;;;;;;;18.06;100.00;101091.53;4973647;28;20163;-78
2021/08/30 08:55:38;;;;;;;0.43;0.20;;;;;;;18.18;100.00;101093.97;4983945;28;20087;-78
2021/08/30 08:58:41;;;;;;;1.45;0.65;;;;;;;18.03;100.00;101084.84;4973808;28;20029;-80
2021/08/30 09:01:44;;;;;;;2.65;0.43;;;;;;;18.03;100.00;101082.03;4973282;28;20132;-80
2021/08/30 09:04:47;;;;;;;0.82;0.45;;;;;;;18.14;100.00;101087.00;4972994;28;20033;-80
2021/08/30 09:07:50;;;;;;;1.20;0.38;;;;;;;18.38;100.00;101084.66;4983801;28;20135;-80
2021/08/30 09:10:53;;;;;;;0.30;0.30;;;;;;;18.26;100.00;101093.53;4973898;28;20106;-80
2021/08/30 09:13:57;;;;;;;1.85;0.40;;;;;;;18.29;100.00;101092.50;4974007;28;20115;-78
2021/08/30 09:17:06;;;;;;;0.32;0.28;;;;;;;18.39;100.00;101096.69;4973763;28;20133;-79
2021/08/30 09:20:13;;;;;;;0.80;0.20;;;;;;;18.54;100.00;101091.72;4974530;28;20732;-79
2021/08/30 09:23:16;;;;;;;0.55;0.45;;;;;;;18.77;100.00;101093.44;4976616;28;20124;-79
2021/08/30 09:26:21;;;;;;;2.13;1.00;;;;;;;18.88;100.00;101094.28;4976556;28;21099;-79
2021/08/30 09:29:27;;;;;;;2.78;0.63;;;;;;;18.63;100.00;101100.00;4966119;28;20120;-79
2021/08/30 09:32:34;;;;;;;0.38;0.20;;;;;;;18.58;100.00;101098.69;4975585;28;21135;-79
2021/08/30 09:35:37;;;;;;;5.70;0.30;;;;;;;18.76;100.00;101091.88;4974429;28;20092;-78
2021/08/30 09:38:40;;;;;;;5.10;0.30;;;;;;;18.98;100.00;101097.69;4974892;28;20088;-78
2021/08/30 09:41:43;;;;;;;2.80;0.30;;;;;;;18.99;100.00;101096.44;4973158;28;20056;-79
2021/08/30 09:44:46;;;;;;;1.05;0.60;;;;;;;18.43;100.00;101097.25;4960632;28;20032;-79
2021/08/30 09:48:01;;;;;;;0.38;0.13;;;;;;;18.62;100.00;101101.28;4971086;28;21156;-79
2021/08/30 09:51:05;;;;;;;2.90;0.25;;;;;;;18.99;100.00;101104.91;4972776;28;20136;-79
2021/08/30 09:54:08;;;;;;;2.25;0.30;;;;;;;19.18;100.00;101108.06;4972699;28;20909;-79
2021/08/30 09:57:14;;;;;;;1.02;0.28;;;;;;;19.19;100.00;101096.25;4972800;28;20029;-79
2021/08/30 10:00:18;;;;;;;0.15;0.10;;;;;;;19.41;100.00;101102.06;4972008;28;21055;-79
2021/08/30 10:03:23;;;;;;;1.17;0.47;;;;;;;18.93;100.00;101102.03;4971711;28;20041;-79
2021/08/30 10:06:27;;;;;;;1.35;0.20;;;;;;;19.20;100.00;101106.31;4971764;28;20088;-79
2021/08/30 10:09:31;;;;;;;1.17;0.45;;;;;;;19.44;100.00;101103.88;4952232;28;20147;-79
2021/08/30 10:12:35;;;;;;;1.35;0.40;;;;;;;19.61;100.00;101101.13;4952545;28;20037;-79
2021/08/30 10:15:38;;;;;;;0.13;0.13;;;;;;;19.75;100.00;101102.22;4951968;28;20771;-79
2021/08/30 10:18:49;;;;;;;1.08;0.35;;;;;;;19.62;100.00;101114.75;4962517;28;20029;-79
2021/08/30 10:21:52;;;;;;;1.17;0.10;;;;;;;17.52;100.00;101104.47;4962688;28;20029;-79
2021/08/30 10:24:55;;;;;;;0.30;0.30;;;;;;;17.16;100.00;101105.78;4954618;28;20312;-79
2021/08/30 10:28:02;;;;;;;2.42;0.40;;;;;;;17.56;100.00;101110.69;4954534;28;20716;-78
2021/08/30 10:31:17;;;;;;;2.67;0.40;;;;;;;17.66;100.00;101111.31;4954378;28;21091;-79
2021/08/30 10:34:30;;;;;;;2.80;0.47;;;;;;;18.26;100.00;101101.97;4953029;28;20030;-79
2021/08/30 10:37:33;;;;;;;6.50;0.82;;;;;;;18.81;100.00;101099.63;4961825;28;20034;-79
2021/08/30 10:40:37;;;;;;;2.85;0.25;;;;;;;19.36;100.00;101093.56;4952189;28;20032;-82
2021/08/30 10:43:42;;;;;;;2.10;0.20;;;;;;;19.15;100.00;101100.59;4951550;28;20101;-79
2021/08/30 10:46:51;;;;;;;1.05;0.60;;;;;;;19.44;100.00;101095.41;4951308;28;20133;-79
2021/08/30 10:49:54;;;;;;;1.65;0.40;;;;;;;19.91;100.00;101099.41;4951386;28;20036;-79
2021/08/30 10:53:14;;;;;;;2.65;0.43;;;;;;;20.29;100.00;101089.50;4951611;28;20089;-79
2021/08/30 10:56:24;;;;;;;0.30;0.20;;;;;;;20.41;100.00;101091.03;4951358;28;20120;-79
2021/08/30 10:59:29;;;;;;;6.72;0.45;;;;;;;20.83;100.00;101090.00;4950879;28;20032;-79
2021/08/30 11:02:39;;;;;;;1.88;0.40;;;;;;;20.70;100.00;101090.53;4951811;28;20696;-79
2021/08/30 11:05:45;;;;;;;0.30;0.28;;;;;;;18.59;100.00;101088.94;4951366;28;20944;-79
2021/08/30 11:08:48;;;;;;;1.48;0.20;;;;;;;18.40;100.00;101090.56;4977157;28;20120;-78
2021/08/30 11:11:51;;;;;;;0.40;0.20;;;;;;;18.35;100.00;101079.22;4960696;28;20160;-80
2021/08/30 11:14:57;;;;;;;0.75;0.35;;;;;;;18.32;100.00;101085.88;4972617;28;20109;-78
2021/08/30 11:18:04;;;;;;;1.13;0.47;;;;;;;18.99;100.00;101082.31;4973583;28;20087;-79
2021/08/30 11:21:07;;;;;;;4.53;0.75;;;;;;;19.83;100.00;101086.28;4974512;28;20033;-80
2021/08/30 11:24:22;;;;;;;1.60;0.28;;;;;;;20.06;100.00;101090.69;4975179;28;20107;-79
2021/08/30 11:27:29;;;;;;;1.30;0.10;;;;;;;19.98;100.00;101087.63;4975929;28;20069;-79
2021/08/30 11:30:32;;;;;;;0.52;0.17;;;;;;;20.19;100.00;101085.31;4977324;28;20674;-78
2021/08/30 11:33:36;;;;;;;1.55;0.55;;;;;;;20.37;100.00;101082.81;4977799;28;20105;-80
2021/08/30 11:36:47;;;;;;;2.17;0.65;;;;;;;20.60;100.00;101086.41;4976401;28;20077;-78
2021/08/30 11:39:53;;;;;;;2.42;0.50;;;;;;;20.76;100.00;101093.34;4976963;28;20033;-79
2021/08/30 11:42:56;;;;;;;0.57;0.20;;;;;;;20.16;100.00;101089.19;4975536;28;20064;-79
2021/08/30 11:46:07;;;;;;;0.75;0.32;;;;;;;20.07;100.00;101089.44;4975272;28;20107;-79
2021/08/30 11:49:10;;;;;;;9.07;1.30;;;;;;;19.96;100.00;101087.34;4974711;28;20080;-79
2021/08/30 11:52:17;;;;;;;2.97;0.45;;;;;;;19.79;100.00;101097.84;4973543;28;20867;-79
2021/08/30 11:55:20;;;;;;;1.15;0.35;;;;;;;19.91;100.00;101090.94;4967479;28;20670;-79
2021/08/30 11:58:31;;;;;;;1.58;0.40;;;;;;;19.53;100.00;101098.00;4968060;28;20324;-78
2021/08/30 12:01:38;;;;;;;1.85;0.20;;;;;;;19.75;100.00;101096.56;4969487;28;20033;-78
2021/08/30 12:04:42;;;;;;;3.65;0.70;;;;;;;19.61;100.00;101104.72;4954826;28;20037;-78
2021/08/30 12:07:45;;;;;;;2.85;0.95;;;;;;;19.30;100.00;101101.97;4962128;28;20107;-78
2021/08/30 12:10:48;;;;;;;3.05;1.35;;;;;;;19.81;100.00;101105.81;4974772;28;20029;-78
2021/08/30 12:16:58;;;;;;;5.88;1.65;;;;;;;20.06;100.00;101099.97;4963986;28;20025;-80
2021/08/30 12:20:08;;;;;;;2.90;1.23;;;;;;;20.03;100.00;101100.22;4974292;28;20802;-79
2021/08/30 12:23:17;;;;;;;3.00;0.98;;;;;;;20.05;100.00;101100.47;4984931;28;20089;-78
2021/08/30 12:26:22;;;;;;;3.20;0.85;;;;;;;20.10;100.00;101103.31;4973979;28;20567;-79
2021/08/30 12:29:25;;;;;;;2.13;0.65;;;;;;;20.15;100.00;101104.59;4964009;28;21090;-78
2021/08/30 12:32:28;;;;;;;0.85;0.30;;;;;;;20.13;100.00;101093.03;4975770;28;20025;-79
2021/08/30 12:35:35;;;;;;;3.22;0.70;;;;;;;19.38;100.00;101096.66;4974805;28;20029;-78
2021/08/30 12:38:39;;;;;;;2.40;0.60;;;;;;;20.69;100.00;101093.84;4974266;28;20210;-80
2021/08/30 12:41:43;;;;;;;5.05;1.40;;;;;;;20.90;100.00;101098.72;4974387;28;20044;-81
2021/08/30 12:44:46;;;;;;;1.77;0.63;;;;;;;20.84;100.00;101097.19;4963625;28;20869;-80
2021/08/30 12:47:49;;;;;;;1.80;1.02;;;;;;;20.27;100.00;101103.38;4955225;28;21097;-79
2021/08/30 12:50:52;;;;;;;4.88;0.85;;;;;;;20.41;100.00;101093.88;4955092;28;20038;-80
2021/08/30 12:53:56;;;;;;;2.67;0.93;;;;;;;20.35;100.00;101093.09;4954809;28;21145;-80
2021/08/30 12:56:59;;;;;;;1.38;0.80;;;;;;;20.54;100.00;101099.78;4942200;28;20113;-78
2021/08/30 13:00:10;;;;;;;0.85;0.25;;;;;;;20.59;100.00;101084.88;4953436;28;20033;-79
2021/08/30 13:03:13;;;;;;;3.50;0.85;;;;;;;21.19;100.00;101090.97;4941853;28;20764;-77
2021/08/30 13:06:16;;;;;;;0.75;0.38;;;;;;;21.18;100.00;101090.19;4954123;28;20084;-77
2021/08/30 13:09:19;;;;;;;1.35;0.20;;;;;;;21.01;100.00;101087.38;4953808;28;20125;-78
2021/08/30 13:12:22;;;;;;;1.15;0.47;;;;;;;20.95;100.00;101089.44;4953785;28;20034;-77
2021/08/30 13:15:25;;;;;;;0.35;0.13;;;;;;;20.86;100.00;101098.22;4954362;28;20101;-77
2021/08/30 13:18:28;;;;;;;0.75;0.25;;;;;;;20.98;100.00;101096.91;4953788;28;20604;-78
2021/08/30 13:21:31;;;;;;;1.05;0.40;;;;;;;20.92;100.00;101084.81;4953985;28;20096;-78
2021/08/30 13:24:34;;;;;;;0.22;0.10;;;;;;;20.95;100.00;101083.78;4967758;28;20053;-78
2021/08/30 13:27:37;;;;;;;1.27;0.25;;;;;;;20.89;100.00;101085.88;4958037;28;20053;-78
2021/08/30 13:30:40;;;;;;;1.17;0.30;;;;;;;20.69;100.00;101088.97;4957517;28;20030;-78
2021/08/30 13:33:43;;;;;;;1.60;0.40;;;;;;;20.62;100.00;101083.81;4958795;28;20763;-78
2021/08/30 13:36:46;;;;;;;0.85;0.30;;;;;;;20.69;100.00;101077.66;4959630;28;20771;-78
2021/08/30 13:39:49;;;;;;;1.17;0.35;;;;;;;20.32;100.00;101086.41;4969536;28;20033;-78
2021/08/30 13:42:53;;;;;;;0.30;0.20;;;;;;;20.86;100.00;101078.38;4958245;28;20108;-78
2021/08/30 13:45:56;;;;;;;1.65;0.20;;;;;;;20.99;100.00;101078.63;4958740;28;20116;-78
2021/08/30 13:48:59;;;;;;;0.73;0.10;;;;;;;20.71;100.00;101075.06;4957875;28;20745;-78
2021/08/30 13:52:03;;;;;;;0.68;0.30;;;;;;;20.57;100.00;101072.50;4957880;28;21051;-77
2021/08/30 13:55:08;;;;;;;4.85;0.30;;;;;;;19.81;100.00;101080.38;4945693;28;21101;-79
2021/08/30 13:58:11;;;;;;;0.77;0.30;;;;;;;18.59;100.00;101076.88;4957986;28;20033;-79
2021/08/30 14:01:14;;;;;;;0.40;0.30;;;;;;;20.03;100.00;101077.59;4957571;28;21142;-79
2021/08/30 14:04:17;;;;;;;1.15;0.25;;;;;;;20.76;100.00;101082.78;4957816;28;20110;-76
2021/08/30 14:07:20;;;;;;;2.80;0.50;;;;;;;19.31;100.00;101086.59;4960584;28;20079;-76
2021/08/30 14:10:23;;;;;;;1.40;0.32;;;;;;;18.80;100.00;101086.78;4976318;28;20033;-77
2021/08/30 14:13:27;;;;;;;0.88;0.75;;;;;;;19.47;100.00;101080.25;4976547;28;20092;-76
2021/08/30 14:16:30;;;;;;;2.75;0.50;;;;;;;20.18;100.00;101080.97;4976924;28;20033;-77
2021/08/30 14:19:33;;;;;;;0.43;0.30;;;;;;;20.95;100.00;101078.13;4976989;28;20029;-76
2021/08/30 14:22:36;;;;;;;0.57;0.20;;;;;;;21.36;100.00;101077.50;4977317;28;20037;-76